Frankfort, ME

2:24 AM EDT on April 28, 2015 (GMT -0400)
Mosquito Mountain | | Change Station
CLOSE
Current Station
Personal Weather Station
Location: Frankfort, ME
Elevation: 204 ft
Nearby Weather Stations

Elev 204 ft 44.59 °N, 68.87 °W | Updated 7 minutes ago

Overcast
Overcast
40.3 °F
Feels Like 36 °F
N
6.8
Wind Variable Wind from ESE

Today
High -- | Low -- °F
--% Chance of Precip.
Yesterday
High -- | Low -- °F
Precip. -- in
5:30 AM 7:36 PM
Waxing Gibbous, 71% visible
Pressure 29.69 in
Visibility 10.0 miles
Clouds Mostly Cloudy 3200 ft
Overcast 4400 ft
Windchill 36 °F
Dew Point 35 °F
Humidity 81%
Rainfall 0.00 in
Snow Depth Not available.
UV 0 out of 12
Pollen 5.50 out of 12
Air Quality Not available.
Flu Activity Regional
METAR KBGR 280553Z 03019G27KT 10SM BKN032 OVC044 05/M01 A2968 RMK AO2 PK WND 03027/0550 SLP053 T00501006 10078 20050 51012

More Conditions Fewer Conditions

Pressure 29.69 in
Visibility 10.0 miles
Clouds Mostly Cloudy 3200 ft
Overcast 4400 ft
Windchill 36 °F
Dew Point 35 °F
Humidity 81%
Rainfall 0.00 in
Snow Depth Not available.
UV 0 out of 12
Pollen 5.50 out of 12
Air Quality Not available.
Flu Activity Regional
METAR KBGR 280553Z 03019G27KT 10SM BKN032 OVC044 05/M01 A2968 RMK AO2 PK WND 03027/0550 SLP053 T00501006 10078 20050 51012

More Conditions Fewer Conditions

10-Day Weather Forecast

Almanac

Astronomy

Apr. 28, 2015 Rise Set
Actual Time
Civil Twilight
Nautical Twilight
Astronomical Twilight
Moon
Length of Visible Light
Length of Day
Tomorrow will be .
, % of the Moon is Illuminated

Today's Extremes

State Highs State Lows

Community

WunderPhotos

Upload Photos

1,817,591 photos uploaded!

WunderBlogs® & News

Nearby

Air Quality

  Air Quality AQ Index Pollutant
Not available.

Snow Depth

Station Depth Elevation

Earthquake Activity

City Distance Mag. Time & Date
Minimum magnitude displayed is 2.5.

Coastal Water Temperatures

Place Temperature

Stations

Nearby Weather Stations

Station Location Temp. Windchill Dew Point Humidity Wind Precip. Elev Updated Type